Time;durP1;ratioP1;P1;durP2;ratioP2;P2;SDS_P1;SDS_P2;PMS_P1;PMS_P2;Temp;Humidity;BMP_temperature;BMP_pressure;BME280_temperature;BME280_humidity;BME280_pressure;Samples;Min_cycle;Max_cycle;Signal;HPM_P1;HPM_P2
2022/10/29 00:02:52;;;;;;;24.63;9.98;;;;;;;;;;6353171;22;20164;-90
2022/10/29 00:06:01;;;;;;;25.05;9.80;;;;;;;;;;6359620;22;20164;-92
2022/10/29 00:09:07;;;;;;;24.10;9.13;;;;;;;;;;6358186;22;20164;-92
2022/10/29 00:12:20;;;;;;;24.02;9.48;;;;;;;;;;6360182;22;20241;-91
2022/10/29 00:15:27;;;;;;;20.30;9.23;;;;;;;;;;6360635;22;20161;-92
2022/10/29 00:18:33;;;;;;;21.85;8.75;;;;;;;;;;6360466;22;20238;-93
2022/10/29 00:21:45;;;;;;;20.80;9.15;;;;;;;;;;6360779;22;20193;-92
2022/10/29 00:24:51;;;;;;;24.23;9.43;;;;;;;;;;6358466;22;20214;-89
2022/10/29 00:27:57;;;;;;;26.85;11.52;;;;;;;;;;6358800;22;20156;-91
2022/10/29 00:31:04;;;;;;;26.17;10.43;;;;;;;;;;6360698;22;20192;-94
2022/10/29 00:34:09;;;;;;;23.48;9.20;;;;;;;;;;6359702;22;20164;-91
2022/10/29 00:37:17;;;;;;;26.80;9.43;;;;;;;;;;6360680;22;20152;-91
2022/10/29 00:40:27;;;;;;;35.58;14.05;;;;;;;;;;6360636;22;20486;-91
2022/10/29 00:43:34;;;;;;;34.13;13.48;;;;;;;;;;6360382;22;20164;-93
2022/10/29 00:50:59;;;;;;;23.20;9.40;;;;;;;;;;6360184;22;20183;-91
2022/10/29 00:54:08;;;;;;;20.25;9.43;;;;;;;;;;6351938;22;20570;-92
2022/10/29 00:57:16;;;;;;;26.17;9.30;;;;;;;;;;6352071;22;20213;-92
2022/10/29 01:00:23;;;;;;;33.97;10.65;;;;;;;;;;6353515;22;20160;-90
2022/10/29 01:03:31;;;;;;;30.38;10.30;;;;;;;;;;6353930;22;20168;-91
2022/10/29 01:06:38;;;;;;;25.45;9.98;;;;;;;;;;6357755;22;20173;-89
2022/10/29 01:09:47;;;;;;;26.70;9.40;;;;;;;;;;6356389;22;20242;-91
2022/10/29 01:13:00;;;;;;;25.88;8.95;;;;;;;;;;6354513;22;20203;-91
2022/10/29 01:16:11;;;;;;;24.48;9.38;;;;;;;;;;6355558;22;20168;-91
2022/10/29 01:19:22;;;;;;;19.23;8.10;;;;;;;;;;6353632;22;20177;-91
2022/10/29 01:22:32;;;;;;;22.00;9.13;;;;;;;;;;6354076;22;20168;-91
2022/10/29 01:25:48;;;;;;;20.55;8.60;;;;;;;;;;6352983;22;20160;-91
2022/10/29 01:29:01;;;;;;;18.67;8.32;;;;;;;;;;6351884;22;20165;-90
2022/10/29 01:32:11;;;;;;;23.63;9.60;;;;;;;;;;6351182;22;20165;-91
2022/10/29 01:35:19;;;;;;;27.50;9.05;;;;;;;;;;6351460;22;20244;-92
2022/10/29 01:38:28;;;;;;;33.08;9.25;;;;;;;;;;6351140;22;20173;-91
2022/10/29 01:41:38;;;;;;;23.40;9.57;;;;;;;;;;6349791;22;20295;-90
2022/10/29 01:45:09;;;;;;;20.02;8.68;;;;;;;;;;6352799;22;20152;-93
2022/10/29 01:48:17;;;;;;;24.50;9.45;;;;;;;;;;6353956;22;20232;-93
2022/10/29 01:51:24;;;;;;;20.25;9.05;;;;;;;;;;6352772;22;20184;-93
2022/10/29 01:54:29;;;;;;;23.98;9.45;;;;;;;;;;6351291;22;20164;-91
2022/10/29 01:57:35;;;;;;;20.88;8.85;;;;;;;;;;6352443;22;20168;-91
2022/10/29 02:00:47;;;;;;;26.10;8.73;;;;;;;;;;6351228;22;20206;-91
2022/10/29 02:03:58;;;;;;;30.30;9.35;;;;;;;;;;6351465;22;20156;-91
2022/10/29 02:07:07;;;;;;;25.48;9.77;;;;;;;;;;6350947;22;20160;-92
2022/10/29 02:10:16;;;;;;;26.95;10.70;;;;;;;;;;6349894;22;20165;-90
2022/10/29 02:13:23;;;;;;;27.83;9.90;;;;;;;;;;6353296;22;20173;-90
2022/10/29 02:16:29;;;;;;;25.75;9.80;;;;;;;;;;6348651;22;20179;-93
2022/10/29 02:19:37;;;;;;;30.95;10.30;;;;;;;;;;6350906;22;20163;-92
2022/10/29 02:22:42;;;;;;;28.70;9.98;;;;;;;;;;6351940;22;20286;-91
2022/10/29 02:25:47;;;;;;;30.90;10.32;;;;;;;;;;6349836;22;20294;-91
2022/10/29 02:28:52;;;;;;;36.65;11.55;;;;;;;;;;6352497;22;20144;-91
2022/10/29 02:31:57;;;;;;;33.25;11.57;;;;;;;;;;6350459;22;20596;-91
2022/10/29 02:35:04;;;;;;;33.15;10.48;;;;;;;;;;6351281;22;20152;-91
2022/10/29 02:38:09;;;;;;;35.13;12.43;;;;;;;;;;6351864;22;20611;-94
2022/10/29 02:41:14;;;;;;;44.13;14.23;;;;;;;;;;6350491;22;20263;-93
2022/10/29 02:44:49;;;;;;;38.25;13.57;;;;;;;;;;6350250;22;20171;-91
2022/10/29 02:47:54;;;;;;;36.58;12.98;;;;;;;;;;6349915;22;20168;-94
2022/10/29 02:51:01;;;;;;;42.28;12.70;;;;;;;;;;6349328;22;20188;-92
2022/10/29 02:54:05;;;;;;;32.10;10.88;;;;;;;;;;6349850;22;20188;-92
2022/10/29 02:57:11;;;;;;;26.50;12.07;;;;;;;;;;6348055;22;20164;-91
2022/10/29 03:00:16;;;;;;;25.67;11.05;;;;;;;;;;6349834;22;20156;-92
2022/10/29 03:03:21;;;;;;;35.70;10.82;;;;;;;;;;6348505;22;20173;-92
2022/10/29 03:06:28;;;;;;;45.28;12.45;;;;;;;;;;6348706;22;20168;-92
2022/10/29 03:09:32;;;;;;;33.67;11.70;;;;;;;;;;6349986;22;20161;-91
2022/10/29 03:12:37;;;;;;;27.38;10.18;;;;;;;;;;6349093;22;20184;-91
2022/10/29 03:15:44;;;;;;;26.80;9.45;;;;;;;;;;6351177;22;20140;-92
2022/10/29 03:18:49;;;;;;;28.38;9.88;;;;;;;;;;6348835;22;20184;-91
2022/10/29 03:21:56;;;;;;;28.90;9.73;;;;;;;;;;6350468;22;20176;-92
2022/10/29 03:25:01;;;;;;;32.22;9.48;;;;;;;;;;6349334;22;20164;-92
2022/10/29 03:28:06;;;;;;;27.48;9.45;;;;;;;;;;6349309;22;20203;-90
2022/10/29 03:31:11;;;;;;;217.00;13.88;;;;;;;;;;6349169;22;20160;-94
2022/10/29 03:34:16;;;;;;;31.88;10.25;;;;;;;;;;6349831;22;20196;-93
2022/10/29 03:37:22;;;;;;;40.92;10.07;;;;;;;;;;6352426;22;20168;-92
2022/10/29 03:40:27;;;;;;;44.53;10.27;;;;;;;;;;6350354;22;20164;-91
2022/10/29 03:43:32;;;;;;;60.47;12.73;;;;;;;;;;6350427;22;20211;-95
2022/10/29 03:46:38;;;;;;;33.53;9.95;;;;;;;;;;6349864;22;20188;-92
2022/10/29 03:49:43;;;;;;;28.63;9.60;;;;;;;;;;6350989;22;20183;-94
2022/10/29 03:52:50;;;;;;;23.75;8.63;;;;;;;;;;6350975;22;20188;-91
2022/10/29 03:55:55;;;;;;;24.58;8.68;;;;;;;;;;6351206;22;20226;-91
2022/10/29 03:59:01;;;;;;;28.98;8.85;;;;;;;;;;6349719;22;20169;-90
2022/10/29 04:06:00;;;;;;;20.15;9.23;;;;;;;;;;6351247;22;20224;-91
2022/10/29 04:09:06;;;;;;;90.60;10.30;;;;;;;;;;6352134;22;20165;-91
2022/10/29 04:12:11;;;;;;;45.88;9.88;;;;;;;;;;6352951;22;20258;-90
2022/10/29 04:15:16;;;;;;;92.43;10.75;;;;;;;;;;6351134;22;20164;-92
2022/10/29 04:18:21;;;;;;;38.05;8.70;;;;;;;;;;6352442;22;20172;-93
2022/10/29 04:21:26;;;;;;;27.15;9.40;;;;;;;;;;6351299;22;20172;-92
2022/10/29 04:24:33;;;;;;;20.58;9.20;;;;;;;;;;6351912;22;20503;-93
2022/10/29 04:27:38;;;;;;;25.80;9.27;;;;;;;;;;6351372;22;20227;-92
2022/10/29 04:30:43;;;;;;;43.55;10.38;;;;;;;;;;6350276;22;20179;-91
2022/10/29 04:33:48;;;;;;;27.05;9.77;;;;;;;;;;6352810;22;20180;-93
2022/10/29 04:36:53;;;;;;;35.03;9.57;;;;;;;;;;6351962;22;20173;-91
2022/10/29 04:40:00;;;;;;;24.63;9.35;;;;;;;;;;6352724;22;20164;-92
2022/10/29 04:43:05;;;;;;;20.02;8.63;;;;;;;;;;6351988;22;20168;-91
2022/10/29 04:46:10;;;;;;;17.90;8.88;;;;;;;;;;6350730;22;20168;-90
2022/10/29 04:49:16;;;;;;;20.83;7.75;;;;;;;;;;6350501;22;20219;-91
2022/10/29 04:52:21;;;;;;;19.40;8.52;;;;;;;;;;6349813;22;20160;-93
2022/10/29 04:55:28;;;;;;;20.15;8.05;;;;;;;;;;6350834;22;20149;-92
2022/10/29 04:58:33;;;;;;;15.40;7.93;;;;;;;;;;6351468;22;20246;-93
2022/10/29 05:01:38;;;;;;;18.27;8.88;;;;;;;;;;6351666;22;20242;-91
2022/10/29 05:04:44;;;;;;;18.92;7.53;;;;;;;;;;6352014;22;20167;-90
2022/10/29 05:07:49;;;;;;;16.42;8.32;;;;;;;;;;6352241;22;20482;-92
2022/10/29 05:10:56;;;;;;;25.75;7.68;;;;;;;;;;6351099;22;20169;-91
2022/10/29 05:14:01;;;;;;;26.60;8.20;;;;;;;;;;6351983;22;20179;-90
2022/10/29 05:17:06;;;;;;;15.75;7.47;;;;;;;;;;6353410;22;20152;-92
2022/10/29 05:20:11;;;;;;;16.95;7.28;;;;;;;;;;6350982;22;20211;-90
2022/10/29 05:23:17;;;;;;;23.17;7.68;;;;;;;;;;6351793;22;20203;-90
2022/10/29 05:26:23;;;;;;;19.85;8.07;;;;;;;;;;6353046;22;20649;-90
2022/10/29 05:29:28;;;;;;;23.08;9.05;;;;;;;;;;6350703;22;20163;-92
2022/10/29 05:32:33;;;;;;;22.23;9.40;;;;;;;;;;6352692;22;20157;-92
2022/10/29 05:35:38;;;;;;;29.70;9.55;;;;;;;;;;6350580;22;20169;-90
2022/10/29 05:38:43;;;;;;;27.45;8.77;;;;;;;;;;6351120;22;20190;-94
2022/10/29 05:41:50;;;;;;;34.97;10.32;;;;;;;;;;6350553;22;20211;-90
2022/10/29 05:44:59;;;;;;;25.38;9.52;;;;;;;;;;6352350;22;20171;-92
2022/10/29 05:48:05;;;;;;;36.97;9.95;;;;;;;;;;6351801;22;20210;-92
2022/10/29 05:51:10;;;;;;;39.75;8.98;;;;;;;;;;6351018;22;20187;-91
2022/10/29 05:54:16;;;;;;;26.35;8.65;;;;;;;;;;6351275;22;20192;-88
2022/10/29 05:57:28;;;;;;;55.88;9.98;;;;;;;;;;6352085;22;20168;-90
2022/10/29 06:00:34;;;;;;;164.27;11.75;;;;;;;;;;6354070;22;20168;-92
2022/10/29 06:03:40;;;;;;;42.35;10.15;;;;;;;;;;6353510;22;20161;-91
2022/10/29 06:06:46;;;;;;;100.63;10.55;;;;;;;;;;6351914;22;20168;-91
2022/10/29 06:09:54;;;;;;;35.40;10.13;;;;;;;;;;6352878;22;20179;-91
2022/10/29 06:13:02;;;;;;;66.63;9.27;;;;;;;;;;6351853;22;20164;-90
2022/10/29 06:16:07;;;;;;;28.10;9.13;;;;;;;;;;6350754;22;20164;-91
2022/10/29 06:19:13;;;;;;;45.33;9.38;;;;;;;;;;6352574;22;20172;-93
2022/10/29 06:22:17;;;;;;;56.85;9.50;;;;;;;;;;6354828;22;20202;-91
2022/10/29 06:25:23;;;;;;;35.65;10.00;;;;;;;;;;6351953;22;20662;-90
2022/10/29 06:28:29;;;;;;;36.55;9.45;;;;;;;;;;6352902;22;20207;-91
2022/10/29 06:31:35;;;;;;;34.78;13.77;;;;;;;;;;6352505;22;20164;-92
2022/10/29 06:34:40;;;;;;;39.20;10.13;;;;;;;;;;6354007;22;20269;-92
2022/10/29 06:37:45;;;;;;;36.67;8.82;;;;;;;;;;6353812;22;20214;-90
2022/10/29 06:40:53;;;;;;;30.73;8.43;;;;;;;;;;6351946;22;20218;-92
2022/10/29 06:43:59;;;;;;;34.55;8.73;;;;;;;;;;6351826;22;20164;-91
2022/10/29 06:47:05;;;;;;;43.42;9.48;;;;;;;;;;6354091;22;20226;-91
2022/10/29 06:50:10;;;;;;;25.48;9.10;;;;;;;;;;6352668;22;20335;-92
2022/10/29 06:53:16;;;;;;;30.60;8.10;;;;;;;;;;6354014;22;20625;-90
2022/10/29 06:56:21;;;;;;;25.75;9.45;;;;;;;;;;6352703;22;20164;-91
2022/10/29 06:59:29;;;;;;;23.10;9.13;;;;;;;;;;6352846;22;20152;-91
2022/10/29 07:02:35;;;;;;;22.92;7.97;;;;;;;;;;6352005;22;20172;-93
2022/10/29 07:05:41;;;;;;;27.70;8.68;;;;;;;;;;6352610;22;20262;-91
2022/10/29 07:08:49;;;;;;;23.75;9.02;;;;;;;;;;6353183;22;20168;-93
2022/10/29 07:11:55;;;;;;;23.05;7.93;;;;;;;;;;6350608;22;20172;-90
2022/10/29 07:15:01;;;;;;;55.95;9.13;;;;;;;;;;6353193;22;20176;-91
2022/10/29 07:18:07;;;;;;;19.75;8.48;;;;;;;;;;6352487;22;20167;-93
2022/10/29 07:21:14;;;;;;;22.23;7.85;;;;;;;;;;6354262;22;20210;-91
2022/10/29 07:24:19;;;;;;;25.05;8.00;;;;;;;;;;6357768;22;20164;-90
2022/10/29 07:27:25;;;;;;;18.75;7.20;;;;;;;;;;6353644;22;20160;-91
2022/10/29 07:30:32;;;;;;;17.02;7.60;;;;;;;;;;6354192;22;20228;-93
2022/10/29 07:33:37;;;;;;;16.35;7.25;;;;;;;;;;6354358;22;20215;-90
2022/10/29 07:36:42;;;;;;;16.65;7.13;;;;;;;;;;6354228;22;20156;-91
2022/10/29 07:39:48;;;;;;;20.02;7.70;;;;;;;;;;6358215;22;20165;-92
2022/10/29 07:42:53;;;;;;;20.95;7.03;;;;;;;;;;6359328;22;20207;-90
2022/10/29 07:50:19;;;;;;;15.07;6.75;;;;;;;;;;6356762;22;20251;-92
2022/10/29 07:53:24;;;;;;;12.45;6.07;;;;;;;;;;6356002;22;20610;-92
2022/10/29 07:56:30;;;;;;;13.73;6.85;;;;;;;;;;6357375;22;20176;-92
2022/10/29 07:59:35;;;;;;;12.35;6.18;;;;;;;;;;6356110;22;20168;-94
2022/10/29 08:02:41;;;;;;;16.98;6.85;;;;;;;;;;6355537;22;20262;-91
2022/10/29 08:05:49;;;;;;;15.73;6.85;;;;;;;;;;6356753;22;20168;-90
2022/10/29 08:08:55;;;;;;;12.65;6.88;;;;;;;;;;6357480;22;20209;-92
2022/10/29 08:12:01;;;;;;;12.85;6.43;;;;;;;;;;6357126;22;20160;-95
2022/10/29 08:15:07;;;;;;;11.20;6.05;;;;;;;;;;6356988;22;20723;-92
2022/10/29 08:18:15;;;;;;;16.58;6.25;;;;;;;;;;6355815;22;20165;-92
2022/10/29 08:21:24;;;;;;;12.73;5.68;;;;;;;;;;6357760;22;20184;-90
2022/10/29 08:24:30;;;;;;;18.55;5.97;;;;;;;;;;6357867;22;20173;-92
2022/10/29 08:27:40;;;;;;;12.95;5.70;;;;;;;;;;6360618;22;20173;-91
2022/10/29 08:30:52;;;;;;;12.77;6.43;;;;;;;;;;6358341;22;20207;-92
2022/10/29 08:33:57;;;;;;;12.05;6.32;;;;;;;;;;6360092;22;20151;-92
2022/10/29 08:37:10;;;;;;;15.23;5.90;;;;;;;;;;6356491;22;20250;-92
2022/10/29 23:21:44;;;;;;;16.63;5.63;;;;;;;;;;6162611;22;20220;-91
2022/10/29 23:24:49;;;;;;;12.98;5.68;;;;;;;;;;6236837;22;20246;-90
2022/10/29 23:27:55;;;;;;;17.20;5.57;;;;;;;;;;6236875;22;20239;-93
2022/10/29 23:31:01;;;;;;;12.73;4.97;;;;;;;;;;6236252;22;20161;-90
2022/10/29 23:34:06;;;;;;;15.95;6.10;;;;;;;;;;6236744;22;20168;-92
2022/10/29 23:37:13;;;;;;;17.58;5.55;;;;;;;;;;6234810;22;20169;-90
2022/10/29 23:40:19;;;;;;;17.55;5.75;;;;;;;;;;6235166;22;20616;-91
2022/10/29 23:43:24;;;;;;;21.77;6.18;;;;;;;;;;6236275;22;20188;-90
2022/10/29 23:46:29;;;;;;;14.32;5.75;;;;;;;;;;6236360;22;20168;-91
2022/10/29 23:49:33;;;;;;;21.63;6.53;;;;;;;;;;6237421;22;20250;-92
2022/10/29 23:52:40;;;;;;;26.38;8.00;;;;;;;;;;6237893;22;20211;-91
2022/10/29 23:55:46;;;;;;;13.60;5.68;;;;;;;;;;6235838;22;20197;-90
2022/10/29 23:58:51;;;;;;;18.40;6.18;;;;;;;;;;6236049;22;20148;-91
